Tiempo atmosférico en la estación meteorológica de Blanes, Girona (60 m.)



Fecha
DESCASC
Temp. máxima en grados centígrados (hora)
DESCASC
Temp. mínima en grados centígrados (hora)
DESCASC
Temp. media en grados centígrados
DESCASC
Racha de viento máxima en m/sg (hora)
DESCASC
Velocidad máxima media en intervalos de 10 minutos(hora)
DESCASC
Precipitaciones diarias en mm
DESCASC
Precipitaciones de 00:00 a 06:00 en mm
DESCASC
Precipitaciones de 06:00 a 12:00 en mm
DESCASC
Precipitaciones de 12:00 a 18:00 en mm
DESCASC
Precipitaciones de 18:00 a 24:00 en mm
DESCASC
20-09-2018 30.5 (14:50) 20.8 (05:50) 25.6 7.5 (08:00) 5 (07:50) 0 0 0 0 0
19-09-2018 27.8 (12:50) 20.4 (06:50) 24.1 7.22 (14:10) 5 (07:20) 0 0 0 0 0
18-09-2018 26.1 (16:50) 19.6 (07:30) 22.9 7.78 (12:40) 5.28 (08:20) 1 0 0.4 0.4 0.2
17-09-2018 27.5 (13:10) 21.1 (05:40) 24.3 6.11 (12:30) 3.61 (11:20) 0 0 0 0 0
16-09-2018 29 (15:10) 21 (00:00) 25 7.5 (13:10) 4.44 (12:10) 0.4 0 0.4 0 0
15-09-2018 28.5 (13:20) 22 (00:00) 25.3 5.56 (15:40) 2.5 (12:10) 0 0 0 0 0
14-09-2018 29.5 (14:10) 20.5 (00:00) 25 5.28 (06:10) 3.89 (06:00) 0 0 0 0 0
13-09-2018 29.8 (15:20) 20.7 (00:00) 25.3 8.89 (18:40) 6.11 (18:40) 0 0 0 0 0
12-09-2018 27.4 (17:40) 21.5 (00:00) 24.4 7.22 (15:40) 4.44 (15:40) 0 0 0 0 0
11-09-2018 29.9 (14:40) 21 (00:00) 25.4 6.67 (06:30) 4.44 (08:10) 0 0 0 0 0
10-09-2018 26.1 (13:10) 20.6 (00:00) 23.4 7.22 (03:30) 5 (01:50) 0 0 0 0 0
09-09-2018 27.9 (14:30) 21.2 (00:00) 24.6 4.17 (03:30) 2.78 (21:00) 0 0 0 0 0
08-09-2018 27.3 (14:40) 20 (00:00) 23.6 6.39 (05:30) 4.17 (05:50) 0 0 0 0 0
07-09-2018 29.2 (15:10) 18.6 (00:00) 23.9 7.78 (15:20) 4.44 (00:10) 1.8 0 0 0 1.8
06-09-2018 26.9 (12:00) 19.3 (00:00) 23.1 10.28 (15:20) 6.94 (15:10) 4.6 4.4 0.2 0 0
05-09-2018 26.1 (10:40) 20.5 (00:00) 23.3 9.44 (14:30) 6.11 (12:00) 0 0 0 0 0
04-09-2018 27.2 (12:10) 21.2 (00:00) 24.2 11.11 (14:30) 7.22 (14:30) 0 0 0 0 0
03-09-2018 25.4 (11:20) 21.2 (00:00) 23.3 10.83 (16:30) 7.22 (16:20) 0 0 0 0 0
02-09-2018 28.8 (15:00) 19.1 (00:00) 23.9 7.22 (00:20) 4.44 (00:10) 0 0 0 0 0
01-09-2018 28.1 (15:10) 20.6 (00:00) 24.4 7.22 (19:30) 4.17 (23:59) 3 0 0 0 3
31-08-2018 25.6 (16:20) 17.7 (00:00) 21.7 9.17 (05:30) 6.39 (08:50) 5.2 2.6 2.6 0 0
30-08-2018 28.6 (11:40) 21.1 (00:00) 24.9 8.06 (01:00) 5 (01:10) 0 0 0 0 0
29-08-2018 30 (13:10) 22.6 (00:00) 26.3 11.67 (02:50) 6.11 (02:50) 0 0 0 0 0
28-08-2018 30.6 (14:50) 22.5 (00:00) 26.6 15.83 (18:10) 8.89 (16:30) 0 0 0 0 0
27-08-2018 30.4 (14:30) 20.2 (00:00) 25.3 5.83 (03:20) 4.17 (02:00) 0 0 0 0 0
26-08-2018 27.7 (15:20) 18.1 (00:00) 22.9 11.39 (18:00) 6.39 (16:10) 0 0 0 0 0
25-08-2018 28.2 (13:50) 19.5 (00:00) 23.9 8.89 (19:20) 5.83 (19:10) 9.2 9.2 0 0 0
24-08-2018 31.2 (14:30) 22.8 (00:00) 27 6.94 (00:30) 4.44 (00:30) 0 0 0 0 0

Gráficas

Temp. máximas Temp. mínimas Temp. medias Precipitaciones Rachas de viento máximas Velocidades máximas media en intervalos de 10 minutos

Datos horarios

Fecha y hora oficial Temperatura (ºC) Velocidad del viento (km/h) Dirección del viento Racha (km/h) Dirección de racha Precipitación (mm) Presión (hPa) Tendencia (hPa) Humedad (%)
2018-09-22 23:00:00 23.6 3 Noroeste 10 Noroeste 0 -- -- 85
2018-09-22 22:00:00 23.5 2 Oeste 9 Oeste 0 -- -- 86
2018-09-22 21:00:00 23.3 5 Sudoeste 14 Sudoeste 0 -- -- 85
2018-09-22 20:00:00 23.1 3 Sur 9 Este 0 -- -- 85
2018-09-22 19:00:00 23.9 4 Este 8 Nordeste 0 -- -- 82
2018-09-22 18:00:00 24.9 5 Este 10 Nordeste 0 -- -- 76
2018-09-22 17:00:00 25.4 6 Este 12 Este 0 -- -- 73
2018-09-22 16:00:00 25.6 8 Este 15 Este 0 -- -- 71
2018-09-22 15:00:00 27.1 7 Sudeste 14 Este 0 -- -- 66
2018-09-22 14:00:00 25.4 7 Este 14 Este 0 -- -- 72
2018-09-22 13:00:00 24.6 6 Este 11 Sudeste 0 -- -- 74
2018-09-22 12:00:00 24.1 4 Sudeste 9 Este 0 -- -- 79
2018-09-22 11:00:00 23.5 2 Sudeste 6 Noroeste 0 -- -- 76
2018-09-22 10:00:00 22.5 0 Calma 9 Nordeste 0 -- -- 81
2018-09-22 09:00:00 22 5 Nordeste 10 Nordeste 0 -- -- 82
2018-09-22 08:00:00 21.6 2 Nordeste 8 Este 0 -- -- 82
2018-09-22 07:00:00 22.1 3 Nordeste 19 Noroeste 0 -- -- 79
2018-09-22 06:00:00 23.3 9 Noroeste 21 Oeste 0 -- -- 74
2018-09-22 05:00:00 23.6 11 Oeste 23 Oeste 0 -- -- 73
2018-09-22 04:00:00 22.6 9 Noroeste 16 Noroeste 0 -- -- 72
2018-09-22 03:00:00 23.1 5 Noroeste 14 Oeste 0 -- -- 71
2018-09-22 02:00:00 23.5 8 Oeste 14 Oeste 0 -- -- 69
2018-09-22 01:00:00 23 7 Noroeste 15 Noroeste 0 -- -- 68
2018-09-22 00:00:00 23.1 9 Noroeste 12 Noroeste 0 -- -- 71
2018-09-21 23:00:00 22.8 6 Noroeste 10 Noroeste 0 -- -- 80
2018-09-21 22:00:00 22.9 5 Noroeste 8 Noroeste 0 -- -- 83
2018-09-21 21:00:00 22.9 0 Calma 4 Oeste 0 -- -- 83
2018-09-21 20:00:00 23.2 3 Nordeste 9 Sudeste 0 -- -- 84
2018-09-21 19:00:00 24.4 6 Este 10 Nordeste 0 -- -- 78
2018-09-21 18:00:00 25.7 4 Sudeste 14 Este 0 -- -- 73
2018-09-21 17:00:00 26.1 8 Este 18 Este 0 -- -- 70
2018-09-21 16:00:00 25.9 9 Este 22 Sudeste 0 -- -- 71
2018-09-21 15:00:00 26.1 10 Este 22 Este 0 -- -- 72
2018-09-21 14:00:00 27.4 8 Este 17 Sudeste 0 -- -- 70
2018-09-21 13:00:00 26.7 6 Este 14 Este 0 -- -- 72
2018-09-21 12:00:00 25.6 10 Este 17 Este 0 -- -- 74
2018-09-21 11:00:00 26.5 5 Este 10 Este 0 -- -- 61
2018-09-21 10:00:00 25.2 4 Sudeste 6 Sur 0 -- -- 61
2018-09-21 09:00:00 23.2 4 Este 7 Este 0 -- -- 64
2018-09-21 08:00:00 21.8 3 Norte 15 Noroeste 0 -- -- 60
2018-09-21 07:00:00 21.9 10 Noroeste 16 Noroeste 0 -- -- 59
2018-09-21 06:00:00 21.9 0 Calma 7 Oeste 0 -- -- 58
2018-09-21 05:00:00 22 0 Calma 5 Nordeste 0 -- -- 59
2018-09-21 04:00:00 23.4 6 Este 22 Noroeste 0 -- -- 61
2018-09-21 03:00:00 24.3 13 Noroeste 22 Noroeste 0 -- -- 51
2018-09-21 02:00:00 24.5 10 Noroeste 18 Noroeste 0 -- -- 51
2018-09-21 01:00:00 24.4 13 Noroeste 19 Noroeste 0 -- -- 53
2018-09-21 00:00:00 24 12 Noroeste 17 Noroeste 0 -- -- 55
2018-09-20 23:00:00 23.5 3 Noroeste 11 Sudoeste 0 -- -- 67
2018-09-20 22:00:00 24.1 5 Sudoeste 10 Oeste 0 -- -- 71
2018-09-20 21:00:00 24.5 4 Noroeste 18 Oeste 0 -- -- 70
2018-09-20 20:00:00 24.8 9 Sudoeste 21 Sudoeste 0 -- -- 76
2018-09-20 19:00:00 26.2 10 Sur 22 Sudoeste 0 -- -- 78
2018-09-20 18:00:00 28.2 9 Sur 14 Sudoeste 0 -- -- 70
2018-09-20 17:00:00 29.7 6 Sur 15 Sudoeste 0 -- -- 66
2018-09-20 16:00:00 30 11 Sur 19 Sur 0 -- -- 62
2018-09-20 15:00:00 30.3 12 Sur 20 Sudoeste 0 -- -- 62
2018-09-20 14:00:00 30.3 12 Sur 19 Sur 0 -- -- 64
2018-09-20 13:00:00 29.7 9 Sudoeste 15 Sur 0 -- -- 66
2018-09-20 12:00:00 28.5 7 Sur 12 Sur 0 -- -- 66
2018-09-20 11:00:00 28.1 3 Nordeste 15 Noroeste 0 -- -- 56
2018-09-20 10:00:00 25.3 10 Noroeste 23 Noroeste 0 -- -- 60
2018-09-20 09:00:00 22.9 16 Noroeste 26 Noroeste 0 -- -- 69
2018-09-20 08:00:00 22.1 17 Noroeste 27 Noroeste 0 -- -- 72
2018-09-20 07:00:00 21.5 11 Noroeste 22 Noroeste 0 -- -- 81
2018-09-20 06:00:00 20.8 2 Sudoeste 11 Norte 0 -- -- 89
2018-09-20 05:00:00 21.5 8 Noroeste 21 Noroeste 0 -- -- 86
2018-09-20 04:00:00 21.5 9 Noroeste 23 Noroeste 0 -- -- 88
2018-09-20 03:00:00 21.5 10 Noroeste 15 Noroeste 0 -- -- 90
2018-09-20 02:00:00 21.5 8 Noroeste 15 Noroeste 0 -- -- 90
2018-09-20 01:00:00 21.7 10 Noroeste 17 Noroeste 0 -- -- 89
2018-09-20 00:00:00 22 9 Noroeste 14 Noroeste 0 -- -- 88
2018-09-19 23:00:00 22.1 6 Noroeste 10 Sudoeste 0 -- -- 90
2018-09-19 22:00:00 21.9 3 Oeste 5 Oeste 0 -- -- 89
2018-09-19 21:00:00 22.4 0 Calma 4 Sudoeste 0 -- -- 87
2018-09-19 20:00:00 23.2 0 Calma 5 Este 0 -- -- 83
2018-09-19 19:00:00 24.5 4 Este 8 Sudeste 0 -- -- 79
2018-09-19 18:00:00 25.3 5 Sudeste 11 Sudeste 0 -- -- 77
2018-09-19 17:00:00 25.7 6 Este 15 Este 0 -- -- 78
2018-09-19 16:00:00 25.1 9 Este 23 Este 0 -- -- 79
2018-09-19 15:00:00 25.4 12 Este 26 Este 0 -- -- 78
2018-09-19 14:00:00 25.8 12 Este 24 Este 0 -- -- 77
2018-09-19 13:00:00 27.6 7 Este 15 Este 0 -- -- 71
2018-09-19 12:00:00 26.7 5 Sudeste 9 Sur 0 -- -- 72
2018-09-19 11:00:00 25.5 8 Sudeste 19 Norte 0 -- -- 77
2018-09-19 10:00:00 22.5 11 Norte 22 Norte 0 -- -- 86
2018-09-19 09:00:00 21.1 18 Norte 23 Norte 0 -- -- 89
2018-09-19 08:00:00 20.6 17 Norte 24 Norte 0 -- -- 91
2018-09-19 07:00:00 20.4 15 Norte 22 Norte 0 -- -- 93
2018-09-19 06:00:00 20.6 15 Norte 23 Norte 0 -- -- 93
2018-09-19 05:00:00 20.6 11 Norte 21 Norte 0 -- -- 93
2018-09-19 04:00:00 20.5 17 Norte 24 Norte 0 -- -- 94
2018-09-19 03:00:00 20.8 14 Norte 21 Noroeste 0 -- -- 95
2018-09-19 02:00:00 20.6 15 Norte 22 Norte 0 -- -- 94
2018-09-19 01:00:00 21 8 Noroeste 13 Norte 0 -- -- 91
2018-09-19 00:00:00 21.2 2 Este 15 Norte 0 -- -- 90
2018-09-18 23:00:00 21.3 2 Sudoeste 14 Noroeste 0 -- -- 91
2018-09-18 22:00:00 21.2 11 Noroeste 15 Noroeste 0 -- -- 92
2018-09-18 21:00:00 21.5 6 Noroeste 10 Noroeste 0 -- -- 91
2018-09-18 20:00:00 22.5 4 Noroeste 6 Noroeste 0.2 -- -- 91
2018-09-18 19:00:00 23.6 3 Norte 17 Este 0 -- -- 86
2018-09-18 18:00:00 25.8 6 Este 16 Este 0 -- -- 79
2018-09-18 17:00:00 25.8 4 Este 22 Este 0 -- -- 79
2018-09-18 16:00:00 24.9 18 Este 25 Este 0 -- -- 79
2018-09-18 15:00:00 25.1 10 Este 16 Este 0 -- -- 75
2018-09-18 14:00:00 24 5 Nordeste 28 Nordeste 0 -- -- 85
2018-09-18 13:00:00 21.9 13 Nordeste 28 Nordeste 0.4 -- -- 93
2018-09-18 12:00:00 21.3 7 Nordeste 17 Nordeste 0.4 -- -- 93
2018-09-18 11:00:00 21.2 12 Norte 23 Norte 0 -- -- 88
2018-09-18 10:00:00 20.7 15 Norte 24 Noroeste 0 -- -- 88
2018-09-18 09:00:00 20.2 16 Norte 24 Norte 0 -- -- 91
2018-09-18 08:00:00 19.7 15 Norte 20 Norte 0 -- -- 93
2018-09-18 07:00:00 20.2 15 Norte 27 Norte 0 -- -- 91
2018-09-18 06:00:00 20.4 12 Norte 17 Norte 0 -- -- 91
2018-09-18 05:00:00 20.3 14 Norte 18 Norte 0 -- -- 92
2018-09-18 04:00:00 20.4 11 Norte 18 Norte 0 -- -- 91
2018-09-18 03:00:00 20.8 10 Norte 17 Norte 0 -- -- 89
2018-09-18 02:00:00 21.2 9 Noroeste 10 Noroeste 0 -- -- 88
2018-09-18 01:00:00 21.5 4 Norte 7 Noroeste 0 -- -- 88
2018-09-18 00:00:00 21.6 5 Norte 8 Norte 0 -- -- 87
2018-09-17 23:00:00 21.9 3 Norte 9 Norte 0 -- -- 85
2018-09-17 22:00:00 22.4 3 Norte 7 Este 0 -- -- 81
2018-09-17 21:00:00 23.1 4 Este 9 Este 0 -- -- 77
2018-09-17 20:00:00 23.9 5 Este 10 Este 0 -- -- 75
2018-09-17 19:00:00 25.9 4 Este 13 Sur 0 -- -- 68
2018-09-17 18:00:00 27.2 4 Sur 15 Este 0 -- -- 64
2018-09-17 17:00:00 26.9 8 Este 19 Este 0 -- -- 68
2018-09-17 16:00:00 27.5 7 Sudeste 18 Este 0 -- -- 64
2018-09-17 15:00:00 27.5 8 Este 19 Sudeste 0 -- -- 63
2018-09-17 14:00:00 27 9 Este 18 Sudeste 0 -- -- 70
2018-09-17 13:00:00 27.1 8 Este 22 Este 0 -- -- 73
2018-09-17 12:00:00 26.4 8 Este 18 Este 0 -- -- 77
2018-09-17 11:00:00 25.7 9 Este 15 Este 0 -- -- 81
2018-09-17 10:00:00 25.4 4 Sur 9 Este 0 -- -- 77
2018-09-17 09:00:00 22.9 6 Norte 9 Noroeste 0 -- -- 88
2018-09-17 08:00:00 21.6 5 Noroeste 8 Noroeste 0 -- -- 93
2018-09-17 07:00:00 21.2 6 Noroeste 11 Noroeste 0 -- -- 89
2018-09-17 06:00:00 21.1 8 Noroeste 9 Noroeste 0 -- -- 89
2018-09-17 05:00:00 21.4 5 Norte 15 Noroeste 0 -- -- 87
2018-09-17 04:00:00 21.8 9 Noroeste 15 Noroeste 0 -- -- 86
2018-09-17 03:00:00 22.2 9 Noroeste 13 Norte 0 -- -- 85
2018-09-17 02:00:00 22.3 8 Noroeste 14 Noroeste 0 -- -- 87
2018-09-17 01:00:00 22.6 3 Noroeste 6 Norte 0 -- -- 87
2018-09-17 00:00:00 22.6 4 Nordeste 6 Nordeste 0 -- -- 85
2018-09-16 23:00:00 23.1 0 Calma 8 Oeste 0 -- -- 83
2018-09-16 22:00:00 23.6 3 Oeste 9 Sur 0 -- -- 79
2018-09-16 21:00:00 24.1 4 Sudoeste 10 Sudoeste 0 -- -- 80
2018-09-16 20:00:00 25 4 Sur 9 Sur 0 -- -- 78
2018-09-16 19:00:00 26.4 6 Sur 13 Sur 0 -- -- 73
2018-09-16 18:00:00 27.7 8 Sur 17 Sur 0 -- -- 68
2018-09-16 17:00:00 28.9 9 Sur 15 Sudoeste 0 -- -- 65
2018-09-16 16:00:00 27 8 Sur 17 Sur 0 -- -- 69
2018-09-16 15:00:00 28.7 8 Sur 19 Sur 0 -- -- 63
2018-09-16 14:00:00 27.3 12 Sur 27 Sudoeste 0 -- -- 68
2018-09-16 13:00:00 26.9 16 Sur 26 Sur 0 -- -- 71
2018-09-16 12:00:00 28.8 13 Sur 24 Sudoeste 0 -- -- 66
2018-09-16 11:00:00 26.7 15 Sur 24 Sur 0 -- -- 74
2018-09-16 10:00:00 24.4 4 Sudoeste 12 Sur 0 -- -- 80
2018-09-16 09:00:00 22.2 2 Sudoeste 10 Sudoeste 0 -- -- 85
2018-09-16 08:00:00 21.3 5 Oeste 11 Noroeste 0 -- -- 86
2018-09-16 07:00:00 21.4 7 Noroeste 14 Noroeste 0.4 -- -- 86
2018-09-16 06:00:00 22 6 Oeste 15 Oeste 0 -- -- 81
2018-09-16 05:00:00 21.6 0 Calma 4 Sur 0 -- -- 74
2018-09-16 04:00:00 21.8 4 Noroeste 9 Noroeste 0 -- -- 70
2018-09-16 03:00:00 21.9 7 Noroeste 12 Noroeste 0 -- -- 70
2018-09-16 02:00:00 21.9 4 Noroeste 7 Oeste 0 -- -- 73
2018-09-16 01:00:00 22.4 2 Noroeste 6 Sur 0 -- -- 68
2018-09-16 00:00:00 22.7 3 Noroeste 9 Noroeste 0 -- -- 67
2018-09-15 23:00:00 22.5 3 Oeste 8 Sudoeste 0 -- -- 67
2018-09-15 22:00:00 22.7 4 Oeste 7 Oeste 0 -- -- 65
2018-09-15 21:00:00 22.7 3 Noroeste 8 Sudoeste 0 -- -- 68
2018-09-15 20:00:00 22.9 3 Oeste 9 Sur 0 -- -- 69
2018-09-15 19:00:00 23.3 6 Sur 13 Sur 0 -- -- 68
2018-09-15 18:00:00 23.8 8 Sur 13 Sur 0 -- -- 67
2018-09-15 17:00:00 24.1 6 Este 16 Sudeste 0 -- -- 63
2018-09-15 16:00:00 25 8 Este 20 Sudeste 0 -- -- 62
2018-09-15 15:00:00 26.9 4 Sudeste 15 Sudeste 0 -- -- 58
2018-09-15 14:00:00 27.5 4 Sudeste 13 Sudeste 0 -- -- 56
2018-09-15 13:00:00 28.2 5 Sudeste 15 Este 0 -- -- 55
2018-09-15 12:00:00 26.2 5 Este 10 Este 0 -- -- 58
2018-09-15 11:00:00 25.8 4 Sur 6 Sur 0 -- -- 65
2018-09-15 10:00:00 24.3 3 Sur 9 Norte 0 -- -- 65
2018-09-15 09:00:00 22.9 0 Calma 6 Noroeste 0 -- -- 64
2018-09-15 08:00:00 22.5 4 Noroeste 6 Norte 0 -- -- 63
2018-09-15 07:00:00 22.6 4 Norte 6 Noroeste 0 -- -- 62
2018-09-15 06:00:00 22.7 2 Norte 10 Norte 0 -- -- 62
2018-09-15 05:00:00 22.7 8 Norte 11 Noroeste 0 -- -- 63
2018-09-15 04:00:00 22.6 8 Noroeste 10 Noroeste 0 -- -- 66
2018-09-15 03:00:00 22.1 4 Norte 10 Norte 0 -- -- 75
2018-09-15 02:00:00 22.4 4 Noroeste 9 Noroeste 0 -- -- 81
2018-09-15 01:00:00 22.9 4 Norte 7 Norte 0 -- -- 84
2018-09-15 00:00:00 22.7 5 Norte 13 Nordeste 0 -- -- 85
2018-09-14 23:00:00 23 9 Nordeste 15 Este 0 -- -- 84
2018-09-14 22:00:00 23.2 5 Nordeste 14 Nordeste 0 -- -- 86
2018-09-14 21:00:00 24 4 Sur 14 Sudoeste 0 -- -- 83
2018-09-14 20:00:00 24.2 5 Sur 11 Sur 0 -- -- 81
2018-09-14 19:00:00 24.7 4 Nordeste 14 Este 0 -- -- 81
2018-09-14 18:00:00 25 10 Este 18 Este 0 -- -- 80
2018-09-14 17:00:00 27.4 4 Sur 14 Sudeste 0 -- -- 68
2018-09-14 16:00:00 28.7 9 Sur 17 Sur 0 -- -- 63
2018-09-14 15:00:00 29.2 10 Sur 17 Sudeste 0 -- -- 61
2018-09-14 14:00:00 28.9 9 Sur 15 Sur 0 -- -- 59
2018-09-14 13:00:00 28.8 8 Sur 13 Sudeste 0 -- -- 55
2018-09-14 12:00:00 28.2 8 Sur 13 Sudeste 0 -- -- 55
2018-09-14 11:00:00 26.8 5 Sudeste 8 Sur 0 -- -- 55
2018-09-14 10:00:00 24.6 5 Sur 11 Norte 0 -- -- 61
2018-09-14 09:00:00 22.1 8 Norte 13 Norte 0 -- -- 67
2018-09-14 08:00:00 20.6 9 Norte 13 Noroeste 0 -- -- 70
2018-09-14 07:00:00 20.5 9 Noroeste 19 Norte 0 -- -- 72
2018-09-14 06:00:00 21.6 14 Norte 18 Norte 0 -- -- 69
2018-09-14 05:00:00 21.4 6 Norte 18 Norte 0 -- -- 79
2018-09-14 04:00:00 21.6 11 Norte 15 Norte 0 -- -- 83
2018-09-14 03:00:00 22 9 Norte 13 Norte 0 -- -- 89
2018-09-14 02:00:00 22.6 4 Este 16 Noroeste 0 -- -- 87
2018-09-14 01:00:00 22.7 8 Noroeste 13 Noroeste 0 -- -- 88
2018-09-14 00:00:00 22.8 5 Norte 10 Norte 0 -- -- 88
2018-09-13 23:00:00 23.4 3 Oeste 18 Oeste 0 -- -- 86
2018-09-13 22:00:00 23.6 9 Oeste 20 Sudoeste 0 -- -- 86
2018-09-13 21:00:00 23.7 7 Sudoeste 20 Sur 0 -- -- 87
2018-09-13 20:00:00 24.1 12 Sudoeste 29 Sudoeste 0 -- -- 85
2018-09-13 19:00:00 25.1 21 Sur 32 Sur 0 -- -- 79
2018-09-13 18:00:00 27 17 Sur 26 Sudoeste 0 -- -- 71
2018-09-13 17:00:00 28 10 Sur 18 Sudoeste 0 -- -- 70
2018-09-13 16:00:00 29.1 9 Sur 20 Sur 0 -- -- 64
2018-09-13 15:00:00 29.4 8 Sur 25 Sur 0 -- -- 62
2018-09-13 14:00:00 29.4 13 Sur 25 Sur 0 -- -- 61
2018-09-13 13:00:00 28.8 13 Sur 23 Sudoeste 0 -- -- 62
2018-09-13 12:00:00 27.9 12 Sur 19 Sur 0 -- -- 63
2018-09-13 11:00:00 26.1 9 Sudoeste 24 Oeste 0 -- -- 63
2018-09-13 10:00:00 23.7 4 Noroeste 16 Nordeste 0 -- -- 70
2018-09-13 09:00:00 21.6 6 Noroeste 20 Noroeste 0 -- -- 79
2018-09-13 08:00:00 21.1 7 Noroeste 12 Norte 0 -- -- 86
2018-09-13 07:00:00 21.1 7 Norte 15 Nordeste 0 -- -- 86
2018-09-13 06:00:00 20.8 6 Norte 19 Nordeste 0 -- -- 85
2018-09-13 05:00:00 21 7 Norte 17 Noroeste 0 -- -- 80
2018-09-13 04:00:00 21.4 7 Noroeste 19 Nordeste 0 -- -- 79
2018-09-13 03:00:00 22.1 12 Nordeste 19 Nordeste 0 -- -- 78
2018-09-13 02:00:00 21.8 11 Norte 23 Norte 0 -- -- 77
2018-09-13 01:00:00 22.2 12 Norte 19 Noroeste 0 -- -- 84
2018-09-13 00:00:00 23.7 11 Norte 17 Norte 0 -- -- 86
2018-09-12 23:00:00 23.4 8 Norte 12 Norte 0 -- -- 86
2018-09-12 22:00:00 24.1 4 Norte 7 Noroeste 0 -- -- 89
2018-09-12 21:00:00 24.4 0 Calma 13 Sudoeste 0 -- -- 88
2018-09-12 20:00:00 25 4 Sudoeste 10 Sur 0 -- -- 86
2018-09-12 19:00:00 25.8 3 Oeste 9 Sur 0 -- -- 80
2018-09-12 18:00:00 27.1 4 Sur 16 Este 0 -- -- 75
2018-09-12 17:00:00 26.6 9 Este 23 Este 0 -- -- 72
2018-09-12 16:00:00 26.2 12 Este 26 Este 0 -- -- 83
2018-09-12 15:00:00 26.5 7 Este 16 Este 0 -- -- 83
2018-09-12 14:00:00 26.9 9 Este 19 Este 0 -- -- 80
2018-09-12 13:00:00 25.1 11 Este 20 Este 0 -- -- 85
2018-09-12 12:00:00 26.1 10 Este 20 Este 0 -- -- 79
2018-09-12 11:00:00 25.9 10 Este 14 Este 0 -- -- 80
2018-09-12 10:00:00 24.6 4 Sudeste 7 Este 0 -- -- 77
2018-09-12 09:00:00 23.2 4 Nordeste 9 Nordeste 0 -- -- 79
2018-09-12 08:00:00 21.6 5 Nordeste 11 Norte 0 -- -- 78
2018-09-12 07:00:00 21.6 11 Noroeste 14 Noroeste 0 -- -- 77
2018-09-12 06:00:00 21.9 7 Noroeste 16 Noroeste 0 -- -- 84
2018-09-12 05:00:00 21.9 9 Noroeste 14 Noroeste 0 -- -- 83
2018-09-12 04:00:00 21.5 12 Noroeste 16 Noroeste 0 -- -- 81
2018-09-12 03:00:00 22.2 10 Noroeste 17 Noroeste 0 -- -- 79
2018-09-12 02:00:00 21.7 11 Noroeste 18 Noroeste 0 -- -- 79
2018-09-12 01:00:00 22.1 4 Nordeste 9 Este 0 -- -- 77
2018-09-12 00:00:00 22.3 0 Calma 5 Nordeste 0 -- -- 80
2018-09-11 23:00:00 22.6 4 Norte 5 Noroeste 0 -- -- 79
2018-09-11 22:00:00 23.2 2 Noroeste 6 Oeste 0 -- -- 75
2018-09-11 21:00:00 23.7 2 Noroeste 11 Sur 0 -- -- 73
2018-09-11 20:00:00 24.9 4 Sur 6 Sur 0 -- -- 73
2018-09-11 19:00:00 26.4 3 Sudeste 12 Sudeste 0 -- -- 68
2018-09-11 18:00:00 26.9 4 Este 11 Sudoeste 0 -- -- 65
2018-09-11 17:00:00 27.8 6 Sur 10 Sur 0 -- -- 64
2018-09-11 16:00:00 29.5 7 Sur 12 Sur 0 -- -- 57
2018-09-11 15:00:00 29.4 9 Sur 14 Sur 0 -- -- 60
2018-09-11 14:00:00 28.5 9 Sur 14 Sur 0 -- -- 63
2018-09-11 13:00:00 29 7 Sur 14 Sur 0 -- -- 60
2018-09-11 12:00:00 29.5 8 Sur 12 Sur 0 -- -- 53
2018-09-11 11:00:00 27.9 6 Sudoeste 14 Noroeste 0 -- -- 51
2018-09-11 10:00:00 24.7 11 Noroeste 21 Noroeste 0 -- -- 60
2018-09-11 09:00:00 23 13 Noroeste 22 Noroeste 0 -- -- 64
2018-09-11 08:00:00 21.7 15 Noroeste 23 Noroeste 0 -- -- 68
2018-09-11 07:00:00 22.3 13 Noroeste 24 Noroeste 0 -- -- 65
2018-09-11 06:00:00 21.5 14 Noroeste 21 Noroeste 0 -- -- 69
2018-09-11 05:00:00 21.5 14 Noroeste 19 Noroeste 0 -- -- 75
2018-09-11 04:00:00 21.9 8 Norte 15 Noroeste 0 -- -- 74
2018-09-11 03:00:00 22.1 10 Noroeste 15 Noroeste 0 -- -- 73
2018-09-11 02:00:00 21.3 4 Este 13 Norte 0 -- -- 82
2018-09-11 01:00:00 22.2 9 Noroeste 17 Noroeste 0 -- -- 82
2018-09-11 00:00:00 22.2 9 Noroeste 15 Noroeste 0 -- -- 82
2018-09-10 23:00:00 22.3 8 Noroeste 13 Oeste 0 -- -- 83
2018-09-10 22:00:00 22.3 6 Oeste 10 Oeste 0 -- -- 80
2018-09-10 21:00:00 22.7 6 Oeste 8 Oeste 0 -- -- 73
2018-09-10 20:00:00 23.6 3 Sudoeste 8 Sudoeste 0 -- -- 74
2018-09-10 19:00:00 24.2 0 Calma 5 Sur 0 -- -- 73
2018-09-10 18:00:00 24.8 4 Sur 6 Sudoeste 0 -- -- 73
2018-09-10 17:00:00 24.7 3 Sur 8 Sudeste 0 -- -- 73
2018-09-10 16:00:00 24.8 3 Sudeste 10 Este 0 -- -- 73
2018-09-10 15:00:00 25.4 5 Sudeste 9 Sudeste 0 -- -- 71
2018-09-10 14:00:00 25 4 Sudeste 11 Sudeste 0 -- -- 72
2018-09-10 13:00:00 26 7 Sudeste 14 Sudeste 0 -- -- 69
2018-09-10 12:00:00 24.9 8 Este 24 Este 0 -- -- 73
2018-09-10 11:00:00 23.6 6 Este 17 Este 0 -- -- 75
2018-09-10 10:00:00 22.3 5 Norte 10 Nordeste 0 -- -- 79
2018-09-10 09:00:00 21.8 4 Este 7 Nordeste 0 -- -- 81
2018-09-10 08:00:00 21 0 Calma 8 Noroeste 0 -- -- 81
2018-09-10 07:00:00 21 4 Nordeste 12 Noroeste 0 -- -- 80
2018-09-10 06:00:00 21 8 Norte 19 Norte 0 -- -- 80
2018-09-10 05:00:00 20.6 11 Norte 17 Noroeste 0 -- -- 83
2018-09-10 04:00:00 21.3 11 Norte 26 Norte 0 -- -- 80
2018-09-10 03:00:00 21.2 16 Norte 24 Norte 0 -- -- 83
2018-09-10 02:00:00 21.4 18 Norte 24 Norte 0 -- -- 83
2018-09-10 01:00:00 21.3 15 Norte 21 Norte 0 -- -- 82
2018-09-10 00:00:00 21.8 5 Nordeste 10 Este 0 -- -- 80
2018-09-09 23:00:00 22.3 6 Norte 14 Norte 0 -- -- 78
2018-09-09 22:00:00 22.8 7 Nordeste 14 Nordeste 0 -- -- 76
2018-09-09 21:00:00 23 10 Norte 14 Nordeste 0 -- -- 78
2018-09-09 20:00:00 23.8 6 Este 9 Este 0 -- -- 80
2018-09-09 19:00:00 24.7 4 Este 11 Este 0 -- -- 79
2018-09-09 18:00:00 26 6 Este 14 Sudeste 0 -- -- 73
2018-09-09 17:00:00 26.2 5 Sudeste 15 Sudeste 0 -- -- 72
2018-09-09 16:00:00 26.3 4 Sur 14 Sudeste 0 -- -- 73
2018-09-09 15:00:00 27.8 5 Sudeste 13 Sudeste 0 -- -- 71
2018-09-09 14:00:00 26.8 9 Sudeste 14 Sudeste 0 -- -- 77
2018-09-09 13:00:00 25.4 6 Este 10 Este 0 -- -- 82
2018-09-09 12:00:00 24.6 6 Nordeste 9 Nordeste 0 -- -- 83
2018-09-09 11:00:00 24.9 5 Este 9 Este 0 -- -- 81
2018-09-09 10:00:00 23.2 3 Nordeste 6 Este 0 -- -- 87
2018-09-09 09:00:00 22.5 0 Calma 8 Este 0 -- -- 89
2018-09-09 08:00:00 21.2 0 Calma 4 Nordeste 0 -- -- 90
2018-09-09 07:00:00 21.5 0 Calma 5 Noroeste 0 -- -- 90
2018-09-09 06:00:00 21.8 4 Noroeste 7 Noroeste 0 -- -- 85
2018-09-09 05:00:00 22.1 2 Nordeste 9 Noroeste 0 -- -- 86
2018-09-09 04:00:00 22.6 5 Noroeste 15 Oeste 0 -- -- 82
2018-09-09 03:00:00 22.7 6 Noroeste 14 Oeste 0 -- -- 83
2018-09-09 02:00:00 22.8 6 Oeste 12 Oeste 0 -- -- 84
2018-09-09 01:00:00 22.8 5 Oeste 11 Oeste 0 -- -- 84
2018-09-09 00:00:00 22.4 3 Sudoeste 10 Sudoeste 0 -- -- 87
2018-09-08 23:00:00 22.9 4 Sudoeste 9 Oeste 0 -- -- 85
2018-09-08 22:00:00 23.4 6 Sudoeste 21 Sudoeste 0 -- -- 85
2018-09-08 21:00:00 23.6 6 Sudoeste 19 Sudoeste 0 -- -- 82
2018-09-08 20:00:00 24.1 13 Sur 22 Sur 0 -- -- 80
2018-09-08 19:00:00 25.3 5 Sur 12 Sur 0 -- -- 76
2018-09-08 18:00:00 26 6 Sur 13 Sur 0 -- -- 72
2018-09-08 17:00:00 26.5 6 Sur 12 Sur 0 -- -- 69
2018-09-08 16:00:00 27 4 Este 14 Sudeste 0 -- -- 62
2018-09-08 15:00:00 26.9 4 Sur 14 Sudeste 0 -- -- 61
2018-09-08 14:00:00 26.3 7 Sudeste 20 Sudeste 0 -- -- 67
2018-09-08 13:00:00 26.3 8 Este 15 Sudeste 0 -- -- 71
2018-09-08 12:00:00 26.4 6 Sudeste 15 Este 0 -- -- 73
2018-09-08 11:00:00 25 7 Este 13 Este 0 -- -- 77
2018-09-08 10:00:00 24 4 Sudeste 12 Noroeste 0 -- -- 79
2018-09-08 09:00:00 21.6 5 Norte 8 Norte 0 -- -- 83
2018-09-08 08:00:00 20.1 4 Noroeste 14 Noroeste 0 -- -- 88
2018-09-08 07:00:00 20.5 11 Noroeste 21 Noroeste 0 -- -- 87
2018-09-08 06:00:00 20.6 15 Noroeste 23 Noroeste 0 -- -- 85
2018-09-08 05:00:00 20.8 14 Noroeste 18 Noroeste 0 -- -- 85
2018-09-08 04:00:00 20.8 12 Noroeste 18 Noroeste 0 -- -- 85
2018-09-08 03:00:00 20 14 Noroeste 20 Noroeste 0 -- -- 90
2018-09-08 02:00:00 20.8 5 Noroeste 15 Noroeste 0 -- -- 91
2018-09-08 01:00:00 20.7 12 Noroeste 18 Noroeste 0 -- -- 93
2018-09-08 00:00:00 20.9 0 Calma 9 Oeste 0 -- -- 94
2018-09-07 23:00:00 20.9 9 Noroeste 15 Oeste 1 -- -- 93
2018-09-07 22:00:00 21.9 5 Oeste 10 Sudoeste 0 -- -- 89
2018-09-07 21:00:00 21.9 4 Noroeste 12 Noroeste 0 -- -- 91
2018-09-07 20:00:00 22.3 6 Noroeste 16 Oeste 0.8 -- -- 90
2018-09-07 19:00:00 24.1 5 Sur 12 Sur 0 -- -- 83
2018-09-07 18:00:00 24.9 5 Sudeste 10 Sur 0 -- -- 75
2018-09-07 17:00:00 26.4 7 Sur 13 Sur 0 -- -- 69
2018-09-07 16:00:00 29 9 Sur 28 Sur 0 -- -- 61
2018-09-07 15:00:00 28.8 10 Sur 17 Sur 0 -- -- 64
2018-09-07 14:00:00 28.6 8 Sur 16 Sudoeste 0 -- -- 61
2018-09-07 13:00:00 25.7 6 Sudeste 10 Sudeste 0 -- -- 69
2018-09-07 12:00:00 26 5 Sur 10 Sur 0 -- -- 62
2018-09-07 11:00:00 23.7 3 Sur 17 Norte 0 -- -- 70
2018-09-07 10:00:00 22.1 14 Norte 21 Norte 0 -- -- 68
2018-09-07 09:00:00 20.6 5 Noroeste 16 Norte 0 -- -- 73
2018-09-07 08:00:00 19.2 13 Norte 21 Noroeste 0 -- -- 75
2018-09-07 07:00:00 19.3 12 Norte 22 Norte 0 -- -- 75
2018-09-07 06:00:00 18.8 7 Norte 13 Noroeste 0 -- -- 81
2018-09-07 05:00:00 19.6 3 Norte 11 Noroeste 0 -- -- 78
2018-09-07 04:00:00 20 8 Noroeste 14 Noroeste 0 -- -- 78
2018-09-07 03:00:00 20.2 6 Noroeste 13 Oeste 0 -- -- 76
2018-09-07 02:00:00 20 10 Noroeste 22 Noroeste 0 -- -- 77
2018-09-07 01:00:00 19 14 Noroeste 23 Noroeste 0 -- -- 81
2018-09-07 00:00:00 20.1 15 Noroeste 22 Norte 0 -- -- 75
2018-09-06 23:00:00 19.8 9 Nordeste 23 Noroeste 0 -- -- 77
2018-09-06 22:00:00 20.5 13 Norte 23 Norte 0 -- -- 75
2018-09-06 21:00:00 21 10 Noroeste 21 Norte 0 -- -- 73
2018-09-06 20:00:00 21.3 13 Noroeste 23 Noroeste 0 -- -- 71
2018-09-06 19:00:00 22.8 12 Norte 21 Noroeste 0 -- -- 68
2018-09-06 18:00:00 24.2 4 Noroeste 31 Nordeste 0 -- -- 65
2018-09-06 17:00:00 22.7 12 Este 36 Este 0 -- -- 78
2018-09-06 16:00:00 23.6 22 Este 37 Este 0 -- -- 75
2018-09-06 15:00:00 24 20 Este 32 Este 0 -- -- 74
2018-09-06 14:00:00 25.1 11 Este 25 Este 0 -- -- 68
2018-09-06 13:00:00 26 8 Este 18 Este 0 -- -- 66
2018-09-06 12:00:00 26.9 8 Sur 18 Sudeste 0.2 -- -- 71
2018-09-06 11:00:00 24.4 6 Nordeste 19 Norte 0 -- -- 75
2018-09-06 10:00:00 21.9 11 Norte 21 Norte 0 -- -- 86
2018-09-06 09:00:00 20.3 13 Norte 22 Norte 0 -- -- 93
2018-09-06 08:00:00 19.3 14 Norte 22 Norte 0 -- -- 96
2018-09-06 07:00:00 19.5 12 Noroeste 17 Noroeste 0 -- -- 96
2018-09-06 06:00:00 19.7 5 Noroeste 30 Norte 1.6 -- -- 96
2018-09-06 05:00:00 20.1 13 Nordeste 22 Nordeste 2.4 -- -- 96
2018-09-06 04:00:00 20.9 14 Norte 31 Norte 0.4 -- -- 88
2018-09-06 03:00:00 21.8 21 Norte 31 Norte 0 -- -- 78
2018-09-06 02:00:00 21.9 17 Norte 31 Norte 0 -- -- 72
2018-09-06 01:00:00 21.5 17 Norte 26 Norte 0 -- -- 76
2018-09-06 00:00:00 22.5 13 Norte 19 Norte 0 -- -- 80
2018-09-05 23:00:00 22.7 12 Norte 17 Norte 0 -- -- 88
2018-09-05 22:00:00 23.2 7 Norte 13 Este 0 -- -- 89
2018-09-05 21:00:00 23.6 8 Este 17 Este 0 -- -- 90
2018-09-05 20:00:00 23.8 5 Este 14 Este 0 -- -- 88
2018-09-05 19:00:00 24 8 Nordeste 14 Nordeste 0 -- -- 89
2018-09-05 18:00:00 24.1 7 Este 18 Este 0 -- -- 89
2018-09-05 17:00:00 24.3 10 Este 18 Este 0 -- -- 87
2018-09-05 16:00:00 24.1 14 Este 24 Este 0 -- -- 88
2018-09-05 15:00:00 25.3 16 Este 34 Este 0 -- -- 83
2018-09-05 14:00:00 25 16 Este 25 Este 0 -- -- 84
2018-09-05 13:00:00 24.9 15 Este 30 Este 0 -- -- 84
2018-09-05 12:00:00 24.5 22 Este 31 Este 0 -- -- 84
2018-09-05 11:00:00 24.7 22 Este 30 Este 0 -- -- 79
2018-09-05 10:00:00 25.2 6 Este 14 Nordeste 0 -- -- 71
2018-09-05 09:00:00 22.5 5 Norte 24 Norte 0 -- -- 72
2018-09-05 08:00:00 21 17 Norte 23 Norte 0 -- -- 77
2018-09-05 07:00:00 20.5 11 Norte 16 Norte 0 -- -- 81
2018-09-05 06:00:00 20.8 9 Norte 15 Norte 0 -- -- 79
2018-09-05 05:00:00 20.9 7 Noroeste 11 Noroeste 0 -- -- 79
2018-09-05 04:00:00 21 9 Noroeste 11 Noroeste 0 -- -- 81
2018-09-05 03:00:00 21.3 2 Sur 13 Norte 0 -- -- 80
2018-09-05 02:00:00 21.6 8 Norte 18 Norte 0 -- -- 79
2018-09-05 01:00:00 22 16 Norte 21 Nordeste 0 -- -- 78
2018-09-05 00:00:00 22 10 Norte 16 Norte 0 -- -- 82
2018-09-04 23:00:00 21.9 8 Norte 10 Norte 0 -- -- 83
2018-09-04 22:00:00 22.2 6 Nordeste 11 Nordeste 0 -- -- 85
2018-09-04 21:00:00 22.5 6 Nordeste 21 Nordeste 0 -- -- 83
2018-09-04 20:00:00 22.7 13 Este 26 Este 0 -- -- 86
2018-09-04 19:00:00 23.1 15 Este 30 Este 0 -- -- 81
2018-09-04 18:00:00 23.1 21 Este 32 Este 0 -- -- 76
2018-09-04 17:00:00 23.6 22 Este 32 Este 0 -- -- 74
2018-09-04 16:00:00 23.9 23 Este 37 Este 0 -- -- 70
2018-09-04 15:00:00 24.1 20 Este 40 Este 0 -- -- 74
2018-09-04 14:00:00 24.4 21 Este 36 Este 0 -- -- 77
2018-09-04 13:00:00 25.6 13 Este 33 Este 0 -- -- 76
2018-09-04 12:00:00 26.8 7 Este 20 Este 0 -- -- 70
2018-09-04 11:00:00 26 13 Este 22 Este 0 -- -- 72
2018-09-04 10:00:00 24 10 Norte 22 Norte 0 -- -- 75
2018-09-04 09:00:00 21.6 12 Noroeste 25 Norte 0 -- -- 84
2018-09-04 08:00:00 21.4 19 Norte 27 Norte 0 -- -- 85
2018-09-04 07:00:00 21.6 11 Noroeste 14 Noroeste 0 -- -- 89
2018-09-04 06:00:00 21.9 4 Norte 7 Norte 0 -- -- 91
2018-09-04 05:00:00 21.5 3 Sur 17 Noroeste 0 -- -- 87
2018-09-04 04:00:00 21.3 12 Norte 26 Oeste 0 -- -- 86
2018-09-04 03:00:00 22 11 Noroeste 15 Noroeste 0 -- -- 87
2018-09-04 02:00:00 21.6 10 Noroeste 12 Noroeste 0 -- -- 86
2018-09-04 01:00:00 22.4 0 Calma 7 Noroeste 0 -- -- 86
2018-09-04 00:00:00 22.1 3 Norte 12 Oeste 0 -- -- 85
2018-09-03 23:00:00 22 5 Noroeste 17 Noroeste 0 -- -- 82
2018-09-03 22:00:00 22 5 Norte 15 Noroeste 0 -- -- 81
2018-09-03 21:00:00 22.6 6 Norte 32 Nordeste 0 -- -- 80
2018-09-03 20:00:00 23.8 14 Norte 28 Nordeste 0 -- -- 82
2018-09-03 19:00:00 23.1 14 Nordeste 27 Este 0 -- -- 84
2018-09-03 18:00:00 22.7 21 Este 31 Este 0 -- -- 80
2018-09-03 17:00:00 23.4 13 Este 39 Este 0 -- -- 76
2018-09-03 16:00:00 24 23 Este 36 Este 0 -- -- 72
2018-09-03 15:00:00 23.8 25 Este 35 Este 0 -- -- 75
2018-09-03 14:00:00 24.6 19 Este 33 Este 0 -- -- 75
2018-09-03 13:00:00 24.6 23 Este 32 Este 0 -- -- 78
2018-09-03 12:00:00 25.1 16 Este 24 Este 0 -- -- 78
2018-09-03 11:00:00 24.7 5 Este 8 Este 0 -- -- 81
2018-09-03 10:00:00 23.6 3 Norte 8 Norte 0 -- -- 81
2018-09-03 09:00:00 22.7 5 Norte 12 Noroeste 0 -- -- 83
2018-09-03 08:00:00 21.4 2 Norte 11 Noroeste 0 -- -- 87
2018-09-03 07:00:00 21.3 7 Norte 15 Noroeste 0 -- -- 82
2018-09-03 06:00:00 21.8 8 Noroeste 17 Noroeste 0 -- -- 82
2018-09-03 05:00:00 22 9 Norte 14 Norte 0 -- -- 80
2018-09-03 04:00:00 22 8 Noroeste 13 Noroeste 0 -- -- 80
2018-09-03 03:00:00 22.1 8 Norte 14 Norte 0 -- -- 79
2018-09-03 02:00:00 22.4 8 Norte 14 Norte 0 -- -- 78
2018-09-03 01:00:00 22.8 9 Norte 16 Norte 0 -- -- 77
2018-09-03 00:00:00 22.7 10 Norte 15 Norte 0 -- -- 76
2018-09-02 23:00:00 22.8 8 Norte 16 Nordeste 0 -- -- 76
2018-09-02 22:00:00 22.9 11 Nordeste 21 Nordeste 0 -- -- 76
2018-09-02 21:00:00 23.3 10 Este 21 Este 0 -- -- 77
2018-09-02 20:00:00 24.1 10 Este 19 Este 0 -- -- 72
2018-09-02 19:00:00 25.7 6 Este 14 Sudeste 0 -- -- 65
2018-09-02 18:00:00 27.6 6 Sur 18 Sudeste 0 -- -- 57
2018-09-02 17:00:00 28.2 7 Sur 18 Sur 0 -- -- 55
2018-09-02 16:00:00 28.6 11 Sur 19 Sudeste 0 -- -- 54
2018-09-02 15:00:00 28.8 12 Sur 20 Sudeste 0 -- -- 49
2018-09-02 14:00:00 27.9 10 Sudeste 17 Sudeste 0 -- -- 48
2018-09-02 13:00:00 27.6 5 Sudeste 14 Sudeste 0 -- -- 49
2018-09-02 12:00:00 26.4 6 Este 14 Este 0 -- -- 49
2018-09-02 11:00:00 24.8 7 Este 14 Este 0 -- -- 51
2018-09-02 10:00:00 23.1 8 Nordeste 17 Este 0 -- -- 51
2018-09-02 09:00:00 21.1 5 Nordeste 8 Nordeste 0 -- -- 64
2018-09-02 08:00:00 20.2 3 Norte 8 Norte 0 -- -- 62
2018-09-02 07:00:00 19.7 8 Norte 13 Noroeste 0 -- -- 68
2018-09-02 06:00:00 19.8 10 Norte 14 Nordeste 0 -- -- 63
2018-09-02 05:00:00 20.4 6 Nordeste 16 Nordeste 0 -- -- 55
2018-09-02 04:00:00 21.1 9 Norte 16 Norte 0 -- -- 59
2018-09-02 03:00:00 21.1 4 Nordeste 13 Norte 0 -- -- 60
2018-09-02 02:00:00 20.5 11 Noroeste 22 Noroeste 0 -- -- 84
2018-09-02 01:00:00 20.5 8 Noroeste 26 Noroeste 0 -- -- 89
2018-09-02 00:00:00 20.6 15 Noroeste 23 Noroeste 0 -- -- 89
2018-09-01 23:00:00 21.1 9 Noroeste 16 Oeste 0 -- -- 87
2018-09-01 22:00:00 21.5 12 Oeste 19 Noroeste 0 -- -- 85
2018-09-01 21:00:00 20.9 7 Noroeste 22 Oeste 0 -- -- 91
2018-09-01 20:00:00 21 7 Noroeste 26 Sur 1.8 -- -- 90
2018-09-01 19:00:00 23 7 Sudoeste 14 Sur 1.2 -- -- 80
2018-09-01 18:00:00 25.6 7 Sur 14 Sur 0 -- -- 65
2018-09-01 17:00:00 26.8 7 Sur 14 Sur 0 -- -- 62
2018-09-01 16:00:00 27.9 9 Sur 15 Sur 0 -- -- 60
2018-09-01 15:00:00 27.7 8 Sur 14 Sur 0 -- -- 60
2018-09-01 14:00:00 27.3 7 Sur 15 Sur 0 -- -- 63
2018-09-01 13:00:00 25.8 8 Sudeste 13 Nordeste 0 -- -- 62
2018-09-01 12:00:00 23.6 6 Noroeste 15 Noroeste 0 -- -- 62
2018-09-01 11:00:00 22.6 5 Norte 13 Noroeste 0 -- -- 65
2018-09-01 10:00:00 21.8 7 Norte 17 Nordeste 0 -- -- 71
2018-09-01 09:00:00 21.2 9 Norte 13 Norte 0 -- -- 75
2018-09-01 08:00:00 21.3 6 Norte 11 Noroeste 0 -- -- 75
2018-09-01 07:00:00 21.3 7 Noroeste 9 Noroeste 0 -- -- 76
2018-09-01 06:00:00 21.6 3 Norte 8 Norte 0 -- -- 77
2018-09-01 05:00:00 21.7 7 Norte 15 Noroeste 0 -- -- 75
2018-09-01 04:00:00 21.6 10 Noroeste 14 Noroeste 0 -- -- 78
2018-09-01 03:00:00 21.9 9 Noroeste 15 Noroeste 0 -- -- 78
2018-09-01 02:00:00 22.1 8 Norte 12 Noroeste 0 -- -- 79
2018-09-01 01:00:00 22.3 9 Noroeste 13 Noroeste 0 -- -- 77
2018-09-01 00:00:00 22.4 9 Noroeste 13 Noroeste 0 -- -- 76
2018-08-31 23:00:00 22.7 8 Noroeste 15 Oeste 0 -- -- 77
2018-08-31 22:00:00 23.1 10 Oeste 17 Oeste 0 -- -- 74
2018-08-31 21:00:00 23.4 6 Sudoeste 15 Oeste 0 -- -- 71
2018-08-31 20:00:00 23.7 8 Sudoeste 17 Sur 0 -- -- 71
2018-08-31 19:00:00 24 8 Sudoeste 25 Sur 0 -- -- 72
2018-08-31 18:00:00 25 15 Sur 30 Sur 0 -- -- 69
2018-08-31 17:00:00 24.9 17 Sur 27 Sudoeste 0 -- -- 70
2018-08-31 16:00:00 25 11 Sudoeste 24 Sudoeste 0 -- -- 68
2018-08-31 15:00:00 24.7 13 Sur 24 Sur 0 -- -- 67
2018-08-31 14:00:00 23.5 7 Sudoeste 14 Sur 0 -- -- 69
2018-08-31 13:00:00 23.7 0 Calma 13 Noroeste 0 -- -- 68
2018-08-31 12:00:00 22.4 9 Noroeste 21 Noroeste 0 -- -- 76
2018-08-31 11:00:00 20.9 11 Noroeste 18 Noroeste 0 -- -- 82
2018-08-31 10:00:00 19.2 12 Norte 27 Norte 0 -- -- 86
2018-08-31 09:00:00 17.7 22 Norte 33 Oeste 1 -- -- 93
2018-08-31 08:00:00 19.1 22 Norte 29 Norte 0 -- -- 92
2018-08-31 07:00:00 19 13 Norte 21 Noroeste 1.6 -- -- 95
2018-08-31 06:00:00 19.2 10 Nordeste 33 Norte 1.4 -- -- 92
2018-08-31 05:00:00 20.3 21 Norte 32 Norte 1.2 -- -- 86
2018-08-31 04:00:00 23 5 Norte 10 Norte 0 -- -- 63
2018-08-31 03:00:00 23.1 6 Norte 11 Norte 0 -- -- 67
2018-08-31 02:00:00 23.3 8 Norte 13 Noroeste 0 -- -- 66
2018-08-31 01:00:00 23.6 3 Noroeste 8 Norte 0 -- -- 64
2018-08-31 00:00:00 23.6 3 Noroeste 9 Norte 0 -- -- 63
2018-08-30 23:00:00 23.7 4 Nordeste 8 Este 0 -- -- 64
2018-08-30 22:00:00 23.7 4 Nordeste 14 Este 0 -- -- 65
2018-08-30 21:00:00 23.7 8 Este 14 Sudeste 0 -- -- 67
2018-08-30 20:00:00 23.9 10 Este 19 Nordeste 0 -- -- 65
2018-08-30 19:00:00 24.5 9 Este 18 Este 0 -- -- 61
2018-08-30 18:00:00 25.8 7 Este 18 Sudeste 0 -- -- 61
2018-08-30 17:00:00 25.1 9 Este 18 Este 0 -- -- 64
2018-08-30 16:00:00 25.7 10 Este 27 Este 0 -- -- 64
2018-08-30 15:00:00 26.8 9 Este 19 Este 0 -- -- 61
2018-08-30 14:00:00 28.2 8 Este 17 Sudeste 0 -- -- 59
2018-08-30 13:00:00 27.3 6 Este 15 Sudeste 0 -- -- 63
2018-08-30 12:00:00 28.1 6 Este 14 Sudeste 0 -- -- 59
2018-08-30 11:00:00 27.5 6 Sur 8 Sudeste 0 -- -- 62
2018-08-30 10:00:00 25.7 4 Sudeste 11 Noroeste 0 -- -- 66
2018-08-30 09:00:00 23 8 Noroeste 12 Noroeste 0 -- -- 72
2018-08-30 08:00:00 21.6 10 Noroeste 16 Noroeste 0 -- -- 77
2018-08-30 07:00:00 21.4 11 Norte 15 Norte 0 -- -- 77
2018-08-30 06:00:00 22.4 9 Noroeste 13 Noroeste 0 -- -- 75
2018-08-30 05:00:00 23.1 7 Oeste 9 Oeste 0 -- -- 71
2018-08-30 04:00:00 23.1 6 Noroeste 15 Noroeste 0 -- -- 71
2018-08-30 03:00:00 23.8 4 Oeste 16 Norte 0 -- -- 67
2018-08-30 02:00:00 23.6 10 Norte 27 Noroeste 0 -- -- 71
2018-08-30 01:00:00 23.3 16 Noroeste 29 Noroeste 0 -- -- 75
2018-08-30 00:00:00 23.5 12 Nordeste 29 Norte 0 -- -- 73
2018-08-29 23:00:00 24 17 Noroeste 29 Oeste 0 -- -- 71
2018-08-29 22:00:00 24.5 6 Noroeste 26 Norte 0 -- -- 68
2018-08-29 21:00:00 24.7 14 Norte 24 Norte 0 -- -- 66
2018-08-29 20:00:00 25 9 Nordeste 23 Norte 0 -- -- 75
2018-08-29 19:00:00 25.3 8 Nordeste 21 Nordeste 0 -- -- 78
2018-08-29 18:00:00 26.3 14 Este 25 Este 0 -- -- 72
2018-08-29 17:00:00 27.5 12 Este 26 Este 0 -- -- 68
2018-08-29 16:00:00 28.4 8 Este 19 Este 0 -- -- 65
2018-08-29 15:00:00 28.8 8 Este 17 Sudeste 0 -- -- 66
2018-08-29 14:00:00 28.6 8 Sudeste 19 Este 0 -- -- 70
2018-08-29 13:00:00 29.9 8 Sudeste 14 Sudeste 0 -- -- 68
2018-08-29 12:00:00 29.7 7 Sudeste 10 Sur 0 -- -- 68
2018-08-29 11:00:00 28.9 6 Sur 10 Sur 0 -- -- 71
2018-08-29 10:00:00 27.5 6 Sur 12 Norte 0 -- -- 70
2018-08-29 09:00:00 24.8 8 Norte 14 Norte 0 -- -- 74
2018-08-29 08:00:00 23.2 9 Norte 12 Norte 0 -- -- 81
2018-08-29 07:00:00 22.8 5 Nordeste 14 Oeste 0 -- -- 86
2018-08-29 06:00:00 23.3 10 Norte 18 Nordeste 0 -- -- 89
2018-08-29 05:00:00 23.8 8 Oeste 27 Norte 0 -- -- 81
2018-08-29 04:00:00 24.3 21 Norte 34 Norte 0 -- -- 80
2018-08-29 03:00:00 25 17 Oeste 42 Oeste 0 -- -- 84
2018-08-29 02:00:00 24.8 17 Sudoeste 33 Sudoeste 0 -- -- 91
2018-08-29 01:00:00 24.9 10 Sudoeste 31 Sudoeste 0 -- -- 88
2018-08-29 00:00:00 25.2 13 Sudoeste 42 Oeste 0 -- -- 87
2018-08-28 23:00:00 25.4 15 Sudoeste 42 Sur 0 -- -- 87
2018-08-28 22:00:00 25.1 22 Sur 37 Sudoeste 0 -- -- 88
2018-08-28 21:00:00 25.2 14 Sudoeste 33 Sudoeste 0 -- -- 87
2018-08-28 20:00:00 25.6 17 Sudoeste 45 Sudoeste 0 -- -- 84
2018-08-28 19:00:00 26.1 18 Sudoeste 57 Sudoeste 0 -- -- 80
2018-08-28 18:00:00 26.8 26 Sur 56 Sudoeste 0 -- -- 78
2018-08-28 17:00:00 28.1 32 Sur 51 Sudoeste 0 -- -- 73
2018-08-28 16:00:00 29 30 Sur 42 Sudoeste 0 -- -- 70
2018-08-28 15:00:00 30.6 11 Sur 28 Sur 0 -- -- 70
2018-08-28 14:00:00 29.6 18 Sur 41 Sur 0 -- -- 70
2018-08-28 13:00:00 28.6 24 Sur 43 Sur 0 -- -- 72
2018-08-28 12:00:00 28.6 28 Sur 46 Sur 0 -- -- 69
2018-08-28 11:00:00 28.1 6 Sur 9 Sur 0 -- -- 69
2018-08-28 10:00:00 26.5 5 Sur 11 Sudoeste 0 -- -- 74
2018-08-28 09:00:00 24.6 5 Sudoeste 16 Noroeste 0 -- -- 78
2018-08-28 08:00:00 22.9 7 Noroeste 14 Noroeste 0 -- -- 83
2018-08-28 07:00:00 22.6 8 Noroeste 12 Noroeste 0 -- -- 85
2018-08-28 06:00:00 22.8 8 Noroeste 12 Noroeste 0 -- -- 89
2018-08-28 05:00:00 22.9 7 Noroeste 15 Noroeste 0 -- -- 90
2018-08-28 04:00:00 23.1 10 Noroeste 15 Noroeste 0 -- -- 87
2018-08-28 03:00:00 23.3 10 Noroeste 17 Noroeste 0 -- -- 87
2018-08-28 02:00:00 23.7 11 Noroeste 14 Noroeste 0 -- -- 88
2018-08-28 01:00:00 23.9 9 Noroeste 13 Noroeste 0 -- -- 88
2018-08-28 00:00:00 24.7 2 Noroeste 10 Sudoeste 0 -- -- 89
2018-08-27 23:00:00 25.1 5 Sur 9 Sur 0 -- -- 88
2018-08-27 22:00:00 25.3 4 Sur 9 Sur 0 -- -- 85
2018-08-27 21:00:00 25.6 5 Sur 12 Sur 0 -- -- 80
2018-08-27 20:00:00 26.3 6 Sur 12 Sur 0 -- -- 68
2018-08-27 19:00:00 27.8 8 Sur 14 Sur 0 -- -- 61
2018-08-27 18:00:00 28.5 8 Sur 17 Sudeste 0 -- -- 57
2018-08-27 17:00:00 29.4 10 Sur 18 Sur 0 -- -- 52
2018-08-27 16:00:00 29.6 12 Sur 17 Sudeste 0 -- -- 52
2018-08-27 15:00:00 30 11 Sur 16 Sur 0 -- -- 50
2018-08-27 14:00:00 30.2 10 Sudeste 15 Sur 0 -- -- 48
2018-08-27 13:00:00 29.6 9 Sur 13 Sur 0 -- -- 50
2018-08-27 12:00:00 28.3 6 Sur 10 Sudeste 0 -- -- 52
2018-08-27 11:00:00 26.5 5 Sudeste 9 Sudeste 0 -- -- 52
2018-08-27 10:00:00 25.4 3 Sur 11 Norte 0 -- -- 59
2018-08-27 09:00:00 22.7 8 Norte 14 Noroeste 0 -- -- 70
2018-08-27 08:00:00 20.9 9 Noroeste 18 Norte 0 -- -- 77
2018-08-27 07:00:00 20.3 10 Norte 16 Noroeste 0 -- -- 82
2018-08-27 06:00:00 20.6 11 Noroeste 15 Noroeste 0 -- -- 82
2018-08-27 05:00:00 20.5 11 Norte 18 Noroeste 0 -- -- 83
2018-08-27 04:00:00 20.6 12 Noroeste 21 Norte 0 -- -- 84
2018-08-27 03:00:00 21.1 13 Norte 20 Norte 0 -- -- 84
2018-08-27 02:00:00 21.2 15 Noroeste 20 Noroeste 0 -- -- 82
2018-08-27 01:00:00 22.2 11 Noroeste 15 Noroeste 0 -- -- 82
2018-08-27 00:00:00 22.7 8 Noroeste 12 Noroeste 0 -- -- 81
2018-08-26 23:00:00 23.3 5 Noroeste 24 Sudoeste 0 -- -- 79
2018-08-26 22:00:00 23.4 8 Sudoeste 33 Sudoeste 0 -- -- 79
2018-08-26 21:00:00 23.5 19 Sur 37 Sur 0 -- -- 77
2018-08-26 20:00:00 24 17 Sudoeste 32 Sudoeste 0 -- -- 74
2018-08-26 19:00:00 24.3 22 Sur 38 Sudoeste 0 -- -- 72
2018-08-26 18:00:00 24.5 22 Sur 41 Sudoeste 0 -- -- 70
2018-08-26 17:00:00 25.3 21 Sur 40 Sudoeste 0 -- -- 67
2018-08-26 16:00:00 26.8 23 Sur 41 Sudoeste 0 -- -- 61
2018-08-26 15:00:00 27.4 15 Sur 27 Sur 0 -- -- 60
2018-08-26 14:00:00 25.6 13 Sur 24 Sur 0 -- -- 67
2018-08-26 13:00:00 26.3 8 Sur 13 Sudeste 0 -- -- 58
2018-08-26 12:00:00 22 4 Sudeste 8 Norte 0 -- -- 62
2018-08-26 11:00:00 19.8 4 Noroeste 13 Noroeste 0 -- -- 71
2018-08-26 10:00:00 18.1 11 Noroeste 19 Noroeste 0 -- -- 84
2018-08-26 09:00:00 19.2 12 Norte 22 Norte 0 -- -- 61
2018-08-26 08:00:00 18.8 12 Norte 22 Norte 0 -- -- 63
2018-08-26 07:00:00 18.7 14 Norte 20 Norte 0 -- -- 64
2018-08-26 06:00:00 18.6 13 Norte 20 Norte 0 -- -- 73
2018-08-26 05:00:00 18.8 9 Norte 22 Norte 0 -- -- 70
2018-08-26 04:00:00 19.2 14 Norte 24 Norte 0 -- -- 66
2018-08-26 03:00:00 19.4 15 Norte 24 Norte 0 -- -- 64
2018-08-26 02:00:00 19.2 15 Norte 22 Norte 0 -- -- 68
2018-08-26 01:00:00 19.6 15 Norte 23 Norte 0 -- -- 64
2018-08-26 00:00:00 19.7 9 Norte 23 Norte 0 -- -- 62
2018-08-25 23:00:00 20 9 Norte 15 Norte 0 -- -- 61
2018-08-25 22:00:00 21 6 Norte 23 Nordeste 0 -- -- 57
2018-08-25 21:00:00 21.6 15 Nordeste 25 Este 0 -- -- 55
2018-08-25 20:00:00 22.4 11 Nordeste 32 Este 0 -- -- 57
2018-08-25 19:00:00 22.6 17 Este 27 Este 0 -- -- 59
2018-08-25 18:00:00 23.4 18 Este 28 Este 0 -- -- 60
2018-08-25 17:00:00 24 9 Este 22 Este 0 -- -- 60
2018-08-25 16:00:00 25.5 9 Este 25 Sudeste 0 -- -- 58
2018-08-25 15:00:00 27.7 6 Sur 22 Sudeste 0 -- -- 58
2018-08-25 14:00:00 27.8 10 Sur 19 Sur 0 -- -- 58
2018-08-25 13:00:00 28 10 Sur 18 Sudeste 0 -- -- 59
2018-08-25 12:00:00 27.1 10 Sur 17 Sur 0 -- -- 61
2018-08-25 11:00:00 25.6 8 Sur 13 Sur 0 -- -- 68
2018-08-25 10:00:00 23.2 3 Sudeste 10 Norte 0 -- -- 70
2018-08-25 09:00:00 21 7 Norte 14 Noroeste 0 -- -- 73
2018-08-25 08:00:00 20 10 Norte 20 Norte 0 -- -- 75
2018-08-25 07:00:00 19.8 14 Norte 23 Noroeste 0 -- -- 79
2018-08-25 06:00:00 19.6 16 Norte 22 Noroeste 0 -- -- 82
2018-08-25 05:00:00 19.9 15 Norte 22 Norte 0 -- -- 90
2018-08-25 04:00:00 21.8 5 Noroeste 8 Noroeste 0 -- -- 94
2018-08-25 03:00:00 22 5 Noroeste 8 Oeste 0.8 -- -- 93
2018-08-25 02:00:00 23 8 Noroeste 21 Nordeste 8.4 -- -- 86
2018-08-25 01:00:00 24.2 9 Sur 17 Sudeste 0 -- -- 79
2018-08-25 00:00:00 24 2 Este 9 Sur 0 -- -- 75
2018-08-24 23:00:00 24.2 5 Sur 9 Sur 0 -- -- 75
2018-08-24 22:00:00 24.4 5 Sur 10 Sudeste 0 -- -- 73
2018-08-24 21:00:00 24.9 3 Sur 10 Sur 0 -- -- 69
2018-08-24 20:00:00 25.4 4 Sur 11 Sudeste 0 -- -- 68
2018-08-24 19:00:00 26.6 0 Calma 14 Sudeste 0 -- -- 65
2018-08-24 18:00:00 26.9 4 Sudeste 20 Este 0 -- -- 66
2018-08-24 17:00:00 27.6 8 Este 17 Sudeste 0 -- -- 63
2018-08-24 16:00:00 27.1 8 Este 19 Sudeste 0 -- -- 65
2018-08-24 15:00:00 28.6 6 Sur 23 Este 0 -- -- 60
2018-08-24 14:00:00 30.4 8 Sudeste 18 Sudeste 0 -- -- 57
2018-08-24 13:00:00 30 9 Este 20 Este 0 -- -- 58
2018-08-24 12:00:00 29.7 9 Sudeste 15 Sudeste 0 -- -- 61
2018-08-24 11:00:00 28.9 6 Sur 10 Sur 0 -- -- 61
2018-08-24 10:00:00 26.8 5 Sudoeste 14 Sudoeste 0 -- -- 65
2018-08-24 09:00:00 24.9 6 Oeste 16 Oeste 0 -- -- 70
2018-08-24 08:00:00 23.3 8 Noroeste 18 Noroeste 0 -- -- 73
2018-08-24 07:00:00 22.8 5 Noroeste 15 Noroeste 0 -- -- 72
2018-08-24 06:00:00 23.7 8 Noroeste 14 Norte 0 -- -- 72
2018-08-24 05:00:00 24.6 8 Noroeste 18 Noroeste 0 -- -- 70
2018-08-24 04:00:00 24.3 9 Noroeste 16 Noroeste 0 -- -- 66
2018-08-24 03:00:00 24 12 Noroeste 17 Noroeste 0 -- -- 68
2018-08-24 02:00:00 24.6 4 Norte 11 Norte 0 -- -- 66
2018-08-24 01:00:00 25.6 12 Norte 25 Noroeste 0 -- -- 62
2018-08-24 00:00:00 24.7 5 Noroeste 10 Noroeste 0 -- -- 71